< < Back
Terminal Aerodrome Forecast


Current Version              Previous Versions:   1  2  3  4  5  6  7  8  9  

Terminal Aerodrome Forecast

018
FTUS42 KTAE 262342 CCA
TAFVLD
TAF COR
KVLD 262342Z 2700/2724 VRB03KT P6SM -RA SCT070 BKN110
     FM270300 VRB03KT P6SM SCT080 BKN120
      TEMPO 2709/2713 5SM BR BKN008
     FM271400 12004KT P6SM SCT040 BKN150
     FM272100 VRB05KT P6SM VCTS BKN040CB=



Latest METAR

453
SAUS70 KWBC 270100 RRI
MTRVLD
METAR KVLD 270053Z 00000KT 10SM -RA FEW017 SCT023 BKN050 23/21 A3024 RMK
AO2 SLP245 P0000 T02280211


USA.gov is the U.S. government's official web portal to all federal, state and local government web resources and services.